createdAt,value
2023-03-04T00:01:17.786Z,1.45
2023-03-04T00:03:45.675Z,1.44
2023-03-04T00:06:13.593Z,1.44
2023-03-04T00:08:41.451Z,1.45
2023-03-04T00:11:09.361Z,1.44
2023-03-04T00:13:37.495Z,1.44
2023-03-04T00:16:05.742Z,1.45
2023-03-04T00:18:33.689Z,1.44
2023-03-04T00:21:01.781Z,1.45
2023-03-04T00:23:29.654Z,1.48
2023-03-04T00:25:57.528Z,1.50
2023-03-04T00:28:25.422Z,1.52
2023-03-04T00:30:53.773Z,1.53
2023-03-04T00:33:21.807Z,1.54
2023-03-04T00:35:49.850Z,1.54
2023-03-04T00:38:17.748Z,1.53
2023-03-04T00:40:45.662Z,1.50
2023-03-04T00:43:13.540Z,1.51
2023-03-04T00:45:41.525Z,1.48
2023-03-04T00:48:09.554Z,1.47
2023-03-04T00:50:37.974Z,1.49
2023-03-04T00:53:06.403Z,1.53
2023-03-04T00:55:34.331Z,1.58
2023-03-04T00:58:02.718Z,1.60
2023-03-04T01:00:30.610Z,1.59
2023-03-04T01:02:58.641Z,1.57
2023-03-04T01:05:26.778Z,1.55
2023-03-04T01:07:54.681Z,1.52
2023-03-04T01:10:22.536Z,1.52
2023-03-04T01:12:50.473Z,1.54
2023-03-04T01:15:18.747Z,1.58
2023-03-04T01:17:46.733Z,1.60
2023-03-04T01:20:17.016Z,1.61
2023-03-04T01:22:44.918Z,1.63
2023-03-04T01:25:12.884Z,1.63
2023-03-04T01:27:40.776Z,1.62
2023-03-04T01:30:11.096Z,1.55
2023-03-04T01:32:39.018Z,1.47
2023-03-04T01:35:07.515Z,1.44
2023-03-04T01:37:35.642Z,1.43
2023-03-04T01:40:05.488Z,1.39
2023-03-04T01:42:36.015Z,1.31
2023-03-04T01:45:05.508Z,1.26
2023-03-04T01:47:36.158Z,1.23
2023-03-04T01:50:11.509Z,1.21
2023-03-04T01:52:42.965Z,1.18
2023-03-04T01:55:16.752Z,1.14
2023-03-04T01:57:46.703Z,1.11
2023-03-04T02:00:23.192Z,1.11
2023-03-04T02:02:55.449Z,1.13
2023-03-04T02:05:24.649Z,1.14
2023-03-04T02:07:54.425Z,1.15
2023-03-04T02:10:22.872Z,1.16
2023-03-04T02:12:52.282Z,1.15
2023-03-04T02:15:21.022Z,1.16
2023-03-04T02:17:49.629Z,1.17
2023-03-04T02:20:32.923Z,1.15
2023-03-04T02:23:09.299Z,1.12
2023-03-04T02:25:47.874Z,1.12
2023-03-04T02:28:16.694Z,1.13
2023-03-04T02:30:44.888Z,1.15
2023-03-04T02:33:18.953Z,1.17
2023-03-04T02:35:47.146Z,1.21
2023-03-04T02:38:15.260Z,1.26
2023-03-04T02:40:48.182Z,1.29
2023-03-04T02:43:16.055Z,1.31
2023-03-04T02:45:47.476Z,1.32
2023-03-04T02:48:18.595Z,1.33
2023-03-04T02:50:53.210Z,1.37
2023-03-04T02:53:22.279Z,1.41
2023-03-04T02:55:50.467Z,1.44
2023-03-04T02:58:19.882Z,1.45
2023-03-04T03:00:48.227Z,1.46
2023-03-04T03:03:16.739Z,1.50
2023-03-04T03:05:44.769Z,1.53
2023-03-04T03:08:12.626Z,1.55
2023-03-04T03:10:40.767Z,1.56
2023-03-04T03:13:09.104Z,1.59
2023-03-04T03:15:42.183Z,1.63
2023-03-04T03:18:11.179Z,1.63
2023-03-04T03:20:39.107Z,1.64
2023-03-04T03:23:07.074Z,1.63
2023-03-04T03:25:34.993Z,1.61
2023-03-04T03:28:02.947Z,1.62
2023-03-04T03:30:30.920Z,1.62
2023-03-04T03:32:58.786Z,1.62
2023-03-04T03:35:27.084Z,1.64
2023-03-04T03:37:55.030Z,1.63
2023-03-04T03:40:23.115Z,1.62
2023-03-04T03:42:50.979Z,1.63
2023-03-04T03:45:18.932Z,1.65
2023-03-04T03:47:46.827Z,1.69
2023-03-04T03:50:14.720Z,1.73
2023-03-04T03:52:42.571Z,1.73
2023-03-04T03:55:10.761Z,1.75
2023-03-04T03:57:38.622Z,1.75
2023-03-04T04:00:08.651Z,1.73
2023-03-04T04:02:45.635Z,1.72
2023-03-04T04:05:14.288Z,1.74
2023-03-04T04:07:42.724Z,1.75
2023-03-04T04:10:11.475Z,1.75
2023-03-04T04:12:39.381Z,1.75
2023-03-04T04:15:08.110Z,1.76
2023-03-04T04:17:35.958Z,1.73
2023-03-04T04:20:04.828Z,1.71
2023-03-04T04:22:32.780Z,1.72
2023-03-04T04:25:00.667Z,1.74
2023-03-04T04:27:28.605Z,1.75
2023-03-04T04:29:56.470Z,1.78
2023-03-04T04:32:24.417Z,1.79
2023-03-04T04:34:52.407Z,1.82
2023-03-04T04:37:20.206Z,1.84
2023-03-04T04:39:48.052Z,1.85
2023-03-04T04:42:15.945Z,1.84
2023-03-04T04:44:43.875Z,1.81
2023-03-04T04:47:11.789Z,1.80
2023-03-04T04:49:39.765Z,1.81
2023-03-04T04:52:07.669Z,1.81
2023-03-04T04:54:35.532Z,1.80
2023-03-04T04:57:03.670Z,1.80
2023-03-04T04:59:31.655Z,1.79
2023-03-04T05:01:59.538Z,1.76
2023-03-04T05:04:27.602Z,1.73
2023-03-04T05:06:55.775Z,1.70
2023-03-04T05:09:23.626Z,1.71
2023-03-04T05:11:51.586Z,1.74
2023-03-04T05:14:19.505Z,1.76
2023-03-04T05:16:47.409Z,1.79
2023-03-04T05:19:15.405Z,1.81
2023-03-04T05:21:43.351Z,1.85
2023-03-04T05:24:11.231Z,1.88
2023-03-04T05:26:39.123Z,1.90
2023-03-04T05:29:07.137Z,1.92
2023-03-04T05:31:35.087Z,1.94
2023-03-04T05:34:03.037Z,1.96
2023-03-04T05:36:30.905Z,1.98
2023-03-04T05:38:58.857Z,2.01
2023-03-04T05:41:26.788Z,2.03
2023-03-04T05:43:54.758Z,2.05
2023-03-04T05:46:26.027Z,2.08
2023-03-04T05:48:54.977Z,2.10
2023-03-04T05:51:23.624Z,2.13
2023-03-04T05:53:51.623Z,2.17
2023-03-04T05:56:20.328Z,2.20
2023-03-04T05:58:48.294Z,2.24
2023-03-04T06:01:17.474Z,2.27
2023-03-04T06:03:45.490Z,2.31
2023-03-04T06:06:13.308Z,2.34
2023-03-04T06:08:41.209Z,2.35
2023-03-04T06:11:09.087Z,2.38
2023-03-04T06:13:38.202Z,2.40
2023-03-04T06:16:06.536Z,2.43
2023-03-04T06:18:34.426Z,2.46
2023-03-04T06:21:03.475Z,2.44
2023-03-04T06:23:31.838Z,2.42
2023-03-04T06:26:01.080Z,2.41
2023-03-04T06:28:29.721Z,2.42
2023-03-04T06:30:58.482Z,2.41
2023-03-04T06:33:26.413Z,2.39
2023-03-04T06:35:56.558Z,2.39
2023-03-04T06:38:25.308Z,2.44
2023-03-04T06:40:55.409Z,2.48
2023-03-04T06:43:24.999Z,2.51
2023-03-04T06:45:52.869Z,2.53
2023-03-04T06:48:20.796Z,2.54
2023-03-04T06:50:48.651Z,2.53
2023-03-04T06:53:16.646Z,2.51
2023-03-04T06:55:44.560Z,2.49
2023-03-04T06:58:12.428Z,2.50
2023-03-04T07:00:40.293Z,2.45
2023-03-04T07:12:39.468Z,2.41
2023-03-04T07:15:07.830Z,2.39
2023-03-04T07:17:36.362Z,2.39
2023-03-04T07:20:11.963Z,2.39
2023-03-04T07:22:39.819Z,2.40
2023-03-04T07:25:08.271Z,2.44
2023-03-04T07:27:38.537Z,2.48
2023-03-04T07:30:07.657Z,2.52
2023-03-04T07:32:36.111Z,2.60
2023-03-04T07:35:04.303Z,2.70
2023-03-04T07:37:32.204Z,2.77
2023-03-04T07:40:00.139Z,2.85
2023-03-04T07:42:28.059Z,2.94
2023-03-04T07:45:01.862Z,3.01
2023-03-04T07:47:29.726Z,3.08
2023-03-04T07:49:57.691Z,3.15
2023-03-04T07:52:26.476Z,3.22
2023-03-04T07:54:54.552Z,3.31
2023-03-04T07:57:23.004Z,3.41
2023-03-04T07:59:50.888Z,3.48
2023-03-04T08:02:19.080Z,3.55
2023-03-04T08:04:47.132Z,3.61
2023-03-04T08:07:15.013Z,3.70
2023-03-04T08:09:44.408Z,3.75
2023-03-04T08:12:12.284Z,3.81
2023-03-04T08:14:40.235Z,3.86
2023-03-04T08:17:09.931Z,3.90
2023-03-04T08:19:37.903Z,3.96
2023-03-04T08:22:05.928Z,4.00
2023-03-04T08:24:33.944Z,4.06
2023-03-04T08:27:02.057Z,4.13
2023-03-04T08:29:30.070Z,4.18
2023-03-04T08:31:58.388Z,4.20
2023-03-04T08:34:28.285Z,4.21
2023-03-04T08:36:56.190Z,4.23
2023-03-04T08:39:24.032Z,4.25
2023-03-04T08:41:51.894Z,4.29
2023-03-04T08:44:20.130Z,4.37
2023-03-04T08:46:48.044Z,4.45
2023-03-04T08:49:16.138Z,4.56
2023-03-04T08:51:45.292Z,4.85
2023-03-04T08:54:13.180Z,5.17
2023-03-04T08:56:41.805Z,5.52
2023-03-04T08:59:09.771Z,5.77
2023-03-04T09:01:37.778Z,5.80
2023-03-04T09:04:06.446Z,5.80
2023-03-04T09:06:34.712Z,5.75
2023-03-04T09:09:03.890Z,5.65
2023-03-04T09:11:32.191Z,5.57
2023-03-04T09:14:00.284Z,5.57
2023-03-04T09:16:28.162Z,5.52
2023-03-04T09:18:56.019Z,5.49
2023-03-04T09:21:24.002Z,5.49
2023-03-04T09:23:52.055Z,5.48
2023-03-04T09:26:26.825Z,5.44
2023-03-04T09:29:02.411Z,5.39
2023-03-04T09:31:30.900Z,5.33
2023-03-04T09:34:00.186Z,5.31
2023-03-04T09:36:28.072Z,5.30
2023-03-04T09:39:00.343Z,5.30
2023-03-04T09:41:42.232Z,5.29
2023-03-04T09:44:28.730Z,5.30
2023-03-04T09:47:00.587Z,5.24
2023-03-04T09:49:29.392Z,5.26
2023-03-04T09:52:18.972Z,5.34
2023-03-04T09:55:10.579Z,5.40
2023-03-04T09:57:50.872Z,5.44
2023-03-04T10:00:30.916Z,5.45
2023-03-04T10:03:17.885Z,5.49
2023-03-04T10:06:00.644Z,5.60
2023-03-04T10:08:53.067Z,5.67
2023-03-04T10:11:32.468Z,5.70
2023-03-04T10:14:18.633Z,5.73
2023-03-04T10:16:55.976Z,5.88
2023-03-04T10:20:09.163Z,6.12
2023-03-04T10:22:47.293Z,6.40
2023-03-04T10:25:15.173Z,6.58
2023-03-04T10:27:56.526Z,6.72
2023-03-04T10:30:46.238Z,6.86
2023-03-04T10:33:19.971Z,7.00
2023-03-04T10:35:59.670Z,7.15
2023-03-04T10:38:40.601Z,7.17
2023-03-04T10:41:17.991Z,7.22
2023-03-04T10:44:00.119Z,7.29
2023-03-04T10:46:28.088Z,7.22
2023-03-04T10:48:56.618Z,7.20
2023-03-04T10:51:27.839Z,7.26
2023-03-04T10:54:04.887Z,7.35
2023-03-04T10:56:36.089Z,7.44
2023-03-04T10:59:34.345Z,7.54
2023-03-04T11:02:27.542Z,7.61
2023-03-04T11:05:07.885Z,7.53
2023-03-04T11:08:19.426Z,7.53
2023-03-04T11:10:50.157Z,7.60
2023-03-04T11:13:23.536Z,7.66
2023-03-04T11:15:51.420Z,7.68
2023-03-04T11:18:37.611Z,7.74
2023-03-04T11:21:06.815Z,7.70
2023-03-04T11:23:44.215Z,7.59
2023-03-04T11:26:19.756Z,7.54
2023-03-04T11:29:02.322Z,7.46
2023-03-04T11:31:56.024Z,7.45
2023-03-04T11:34:30.818Z,7.56
2023-03-04T11:37:08.128Z,7.60
2023-03-04T11:39:41.955Z,7.62
2023-03-04T11:42:33.814Z,7.67
2023-03-04T11:45:02.061Z,7.70
2023-03-04T11:47:55.392Z,7.60
2023-03-04T11:50:42.869Z,7.49
2023-03-04T11:53:33.613Z,7.49
2023-03-04T11:56:25.860Z,7.46
2023-03-04T11:59:05.659Z,7.43
2023-03-04T12:01:45.461Z,7.37
2023-03-04T12:04:31.875Z,7.39
2023-03-04T12:07:09.348Z,7.38
2023-03-04T12:10:09.324Z,7.30
2023-03-04T12:13:00.628Z,7.32
2023-03-04T12:15:54.568Z,7.33
2023-03-04T12:18:52.800Z,7.39
2023-03-04T12:21:45.465Z,7.50
2023-03-04T12:24:22.267Z,7.57
2023-03-04T12:27:16.980Z,7.61
2023-03-04T12:29:58.675Z,7.63
2023-03-04T12:32:35.698Z,7.54
2023-03-04T12:35:31.818Z,7.50
2023-03-04T12:38:05.425Z,7.45
2023-03-04T12:40:56.017Z,7.36
2023-03-04T12:43:29.975Z,7.28
2023-03-04T12:46:18.037Z,7.25
2023-03-04T12:49:24.573Z,7.29
2023-03-04T12:52:10.979Z,7.32
2023-03-04T12:54:38.764Z,7.35
2023-03-04T12:57:13.561Z,7.42
2023-03-04T13:00:17.774Z,7.44
2023-03-04T13:03:10.746Z,7.37
2023-03-04T13:06:04.676Z,7.34
2023-03-04T13:08:38.473Z,7.37
2023-03-04T13:11:28.467Z,7.40
2023-03-04T13:14:09.540Z,7.36
2023-03-04T13:16:43.905Z,7.32
2023-03-04T13:19:47.090Z,7.27
2023-03-04T13:22:39.940Z,7.28
2023-03-04T13:25:32.959Z,7.36
2023-03-04T13:28:02.711Z,7.43
2023-03-04T13:30:34.400Z,7.50
2023-03-04T13:33:11.363Z,7.54
2023-03-04T13:35:48.633Z,7.56
2023-03-04T13:38:32.572Z,7.55
2023-03-04T13:41:19.346Z,7.48
2023-03-04T13:43:54.257Z,7.40
2023-03-04T13:46:26.959Z,7.38
2023-03-04T13:49:00.562Z,7.38
2023-03-04T13:51:46.186Z,7.37
2023-03-04T13:54:26.731Z,7.32
2023-03-04T13:57:00.781Z,7.25
2023-03-04T13:59:32.040Z,7.20
2023-03-04T14:02:02.056Z,7.19
2023-03-04T14:04:33.440Z,7.19
2023-03-04T14:07:16.617Z,7.14
2023-03-04T14:09:58.688Z,7.03
2023-03-04T14:12:30.366Z,7.03
2023-03-04T14:15:02.958Z,7.05
2023-03-04T14:17:36.510Z,7.08
2023-03-04T14:20:06.474Z,7.07
2023-03-04T14:22:40.186Z,7.07
2023-03-04T14:25:13.978Z,7.10
2023-03-04T14:27:41.975Z,7.12
2023-03-04T14:30:39.150Z,7.08
2023-03-04T14:33:24.336Z,7.01
2023-03-04T14:35:55.422Z,6.86
2023-03-04T14:38:27.133Z,6.68
2023-03-04T14:41:17.408Z,6.62
2023-03-04T14:44:16.801Z,6.54
2023-03-04T14:47:06.094Z,6.46
2023-03-04T14:49:39.652Z,6.34
2023-03-04T14:52:26.744Z,6.24
2023-03-04T14:55:17.780Z,6.19
2023-03-04T14:57:48.605Z,6.13
2023-03-04T15:00:20.648Z,6.07
2023-03-04T15:02:54.640Z,6.04
2023-03-04T15:05:29.714Z,6.04
2023-03-04T15:08:02.688Z,6.04
2023-03-04T15:10:38.061Z,6.05
2023-03-04T15:13:08.492Z,6.04
2023-03-04T15:15:46.095Z,6.03
2023-03-04T15:18:18.679Z,6.04
2023-03-04T15:20:55.181Z,6.05
2023-03-04T15:23:23.097Z,6.06
2023-03-04T15:25:56.202Z,6.03
2023-03-04T15:28:25.420Z,5.98
2023-03-04T15:30:54.524Z,5.89
2023-03-04T15:33:22.695Z,5.82
2023-03-04T15:35:57.675Z,5.78
2023-03-04T15:38:27.112Z,5.72
2023-03-04T15:40:58.319Z,5.61
2023-03-04T15:43:26.796Z,5.52
2023-03-04T15:45:54.898Z,5.47
2023-03-04T15:48:23.025Z,5.46
2023-03-04T15:50:59.311Z,5.47
2023-03-04T15:54:00.959Z,5.49
2023-03-04T15:56:31.850Z,5.53
2023-03-04T15:59:04.535Z,5.51
2023-03-04T16:01:32.606Z,5.48
2023-03-04T16:04:00.587Z,5.47
2023-03-04T16:06:30.872Z,5.45
2023-03-04T16:09:00.129Z,5.43
2023-03-04T16:11:30.941Z,5.38
2023-03-04T16:13:58.811Z,5.35
2023-03-04T16:16:26.844Z,5.32
2023-03-04T16:18:54.713Z,5.25
2023-03-04T16:21:26.132Z,5.17
2023-03-04T16:23:54.805Z,5.08
2023-03-04T16:26:28.212Z,5.03
2023-03-04T16:28:56.347Z,4.98
2023-03-04T16:31:24.315Z,4.95
2023-03-04T16:33:52.211Z,4.93
2023-03-04T16:36:24.440Z,4.91
2023-03-04T16:38:55.900Z,4.90
2023-03-04T16:41:28.405Z,4.90
2023-03-04T16:44:00.041Z,4.89
2023-03-04T16:46:28.672Z,4.90
2023-03-04T16:48:56.548Z,4.92
2023-03-04T16:51:24.558Z,4.92
2023-03-04T16:53:56.290Z,4.92
2023-03-04T16:56:24.279Z,4.93
2023-03-04T16:58:54.306Z,4.92
2023-03-04T17:01:26.053Z,4.92
2023-03-04T17:03:55.284Z,4.89
2023-03-04T17:06:24.683Z,4.86
2023-03-04T17:08:52.639Z,4.84
2023-03-04T17:11:23.234Z,4.85
2023-03-04T17:13:51.937Z,4.86
2023-03-04T17:16:19.918Z,4.86
2023-03-04T17:18:47.881Z,4.86
2023-03-04T17:21:22.834Z,4.89
2023-03-04T17:23:51.267Z,4.89
2023-03-04T17:26:22.768Z,4.88
2023-03-04T17:28:51.623Z,4.86
2023-03-04T17:31:21.074Z,4.83
2023-03-04T17:33:49.430Z,4.80
2023-03-04T17:36:18.734Z,4.79
2023-03-04T17:38:47.178Z,4.80
2023-03-04T17:41:18.626Z,4.79
2023-03-04T17:43:51.452Z,4.75
2023-03-04T17:46:22.243Z,4.73
2023-03-04T17:48:53.026Z,4.72
2023-03-04T17:51:21.413Z,4.70
2023-03-04T17:53:49.268Z,4.69
2023-03-04T17:56:17.435Z,4.68
2023-03-04T17:58:45.346Z,4.66
2023-03-04T18:01:20.978Z,4.67
2023-03-04T18:03:49.246Z,4.68
2023-03-04T18:06:18.353Z,4.67
2023-03-04T18:08:46.417Z,4.69
2023-03-04T18:11:14.876Z,4.67
2023-03-04T18:13:44.316Z,4.64
2023-03-04T18:16:15.705Z,4.63
2023-03-04T18:18:43.640Z,4.63
2023-03-04T18:21:13.577Z,4.63
2023-03-04T18:23:41.556Z,4.62
2023-03-04T18:26:09.948Z,4.62
2023-03-04T18:28:38.504Z,4.64
2023-03-04T18:31:06.752Z,4.68
2023-03-04T18:33:35.354Z,4.69
2023-03-04T18:36:06.159Z,4.92
2023-03-04T18:38:34.204Z,5.44
2023-03-04T18:41:08.233Z,5.72
2023-03-04T18:43:36.136Z,5.63
2023-03-04T18:46:30.038Z,5.51
2023-03-04T18:49:03.944Z,5.42
2023-03-04T18:51:32.395Z,5.34
2023-03-04T18:54:00.501Z,5.29
2023-03-04T18:56:38.535Z,5.19
2023-03-04T18:59:12.684Z,5.09
2023-03-04T19:01:40.934Z,5.02
2023-03-04T19:04:09.446Z,4.99
2023-03-04T19:06:37.496Z,4.94
2023-03-04T19:09:06.524Z,4.89
2023-03-04T19:11:34.791Z,4.85
2023-03-04T19:14:03.204Z,4.82
2023-03-04T19:16:31.420Z,4.80
2023-03-04T19:18:59.460Z,4.78
2023-03-04T19:21:27.446Z,4.77
2023-03-04T19:23:55.478Z,4.76
2023-03-04T19:26:23.428Z,4.78
2023-03-04T19:28:51.350Z,4.81
2023-03-04T19:31:19.272Z,4.85
2023-03-04T19:33:47.685Z,4.82
2023-03-04T19:36:15.651Z,4.76
2023-03-04T19:38:44.172Z,4.71
2023-03-04T19:41:15.654Z,4.69
2023-03-04T19:43:43.965Z,4.75
2023-03-04T19:46:12.822Z,4.71
2023-03-04T19:48:41.513Z,4.69
2023-03-04T19:51:26.345Z,4.67
2023-03-04T19:53:54.621Z,4.66
2023-03-04T19:56:23.512Z,4.65
2023-03-04T19:58:55.946Z,4.63
2023-03-04T20:01:28.400Z,4.59
2023-03-04T20:04:02.518Z,4.53
2023-03-04T20:06:31.175Z,4.49
2023-03-04T20:09:00.332Z,4.47
2023-03-04T20:11:29.430Z,4.46
2023-03-04T20:13:59.935Z,4.44
2023-03-04T20:16:28.931Z,4.44
2023-03-04T20:18:58.089Z,4.44
2023-03-04T20:21:28.335Z,4.44
2023-03-04T20:23:58.067Z,4.43
2023-03-04T20:26:26.361Z,4.41
2023-03-04T20:28:54.535Z,4.39
2023-03-04T20:31:29.748Z,4.38
2023-03-04T20:33:59.724Z,4.37
2023-03-04T20:36:29.867Z,4.36
2023-03-04T20:39:02.401Z,4.34
2023-03-04T20:41:33.425Z,4.32
2023-03-04T20:44:01.839Z,4.30
2023-03-04T20:46:40.155Z,4.29
2023-03-04T20:49:16.510Z,4.30
2023-03-04T20:51:44.454Z,4.27
2023-03-04T20:54:12.343Z,4.23
2023-03-04T20:56:40.674Z,4.24
2023-03-04T20:59:11.511Z,4.29
2023-03-04T21:01:42.131Z,4.33
2023-03-04T21:04:10.706Z,4.33
2023-03-04T21:06:39.727Z,4.32
2023-03-04T21:09:11.513Z,4.30
2023-03-04T21:11:42.862Z,4.25
2023-03-04T21:14:14.682Z,4.17
2023-03-04T21:16:43.185Z,4.12
2023-03-04T21:19:23.010Z,4.09
2023-03-04T21:21:52.141Z,4.08
2023-03-04T21:24:22.924Z,4.06
2023-03-04T21:26:51.124Z,4.04
2023-03-04T21:29:21.376Z,4.02
2023-03-04T21:31:53.698Z,4.02
2023-03-04T21:34:25.277Z,4.01
2023-03-04T21:36:53.182Z,3.99
2023-03-04T21:39:24.191Z,3.97
2023-03-04T21:41:52.954Z,3.96
2023-03-04T21:44:28.402Z,3.97
2023-03-04T21:46:58.386Z,3.99
2023-03-04T21:49:27.057Z,4.01
2023-03-04T21:51:55.282Z,4.04
2023-03-04T21:54:23.296Z,4.04
2023-03-04T21:56:51.240Z,4.02
2023-03-04T21:59:19.240Z,4.01
2023-03-04T22:01:47.249Z,4.02
2023-03-04T22:04:15.327Z,3.99
2023-03-04T22:06:43.317Z,3.96
2023-03-04T22:09:12.819Z,3.92
2023-03-04T22:11:40.742Z,3.90
2023-03-04T22:14:10.265Z,3.89
2023-03-04T22:16:48.920Z,3.89
2023-03-04T22:19:20.956Z,3.89
2023-03-04T22:21:48.851Z,3.87
2023-03-04T22:24:16.922Z,3.85
2023-03-04T22:26:44.776Z,3.84
2023-03-04T22:29:12.881Z,3.84
2023-03-04T22:31:41.172Z,3.85
2023-03-04T22:34:13.853Z,3.83
2023-03-04T22:36:43.865Z,3.77
2023-03-04T22:39:14.569Z,3.66
2023-03-04T22:41:42.524Z,3.52
2023-03-04T22:44:10.427Z,3.41
2023-03-04T22:46:39.781Z,3.34
2023-03-04T22:49:10.072Z,3.29
2023-03-04T22:51:41.425Z,3.24
2023-03-04T22:54:14.217Z,3.19
2023-03-04T22:56:42.650Z,3.14
2023-03-04T22:59:10.786Z,3.10
2023-03-04T23:01:38.887Z,3.07
2023-03-04T23:04:07.155Z,3.07
2023-03-04T23:06:35.070Z,3.09
2023-03-04T23:09:04.060Z,3.09
2023-03-04T23:11:35.541Z,3.10
2023-03-04T23:14:07.144Z,3.07
2023-03-04T23:16:41.050Z,3.04
2023-03-04T23:19:12.505Z,3.02
2023-03-04T23:21:40.940Z,3.04
2023-03-04T23:24:11.825Z,3.05
2023-03-04T23:26:41.581Z,3.03
2023-03-04T23:29:13.723Z,3.01
2023-03-04T23:31:42.723Z,2.99
2023-03-04T23:34:11.434Z,2.95
2023-03-04T23:36:39.563Z,2.89
2023-03-04T23:39:08.052Z,2.85
2023-03-04T23:41:36.445Z,2.81
2023-03-04T23:44:04.890Z,2.80
2023-03-04T23:46:32.925Z,2.77
2023-03-04T23:49:00.865Z,2.73
2023-03-04T23:51:29.817Z,2.69
2023-03-04T23:53:58.788Z,2.68
2023-03-04T23:56:29.688Z,2.67
2023-03-04T23:58:58.666Z,2.66
